createdAt,value
2017-12-05T00:00:43.393Z,101795.78
2017-12-05T00:01:49.096Z,101799.67
2017-12-05T00:02:55.273Z,101795.76
2017-12-05T00:04:01.488Z,101801.39
2017-12-05T00:05:07.695Z,101800.11
2017-12-05T00:06:14.565Z,101795.36
2017-12-05T00:07:21.039Z,101794.08
2017-12-05T00:08:27.204Z,101794.45
2017-12-05T00:09:33.315Z,101794.06
2017-12-05T00:10:39.464Z,101794.47
2017-12-05T00:11:45.115Z,101796.23
2017-12-05T00:12:50.910Z,101794.06
2017-12-05T00:13:59.588Z,101798.42
2017-12-05T00:15:07.737Z,101794.95
2017-12-05T00:16:13.880Z,101793.22
2017-12-05T00:17:20.046Z,101796.70
2017-12-05T00:18:25.590Z,101790.20
2017-12-05T00:19:31.762Z,101795.37
2017-12-05T00:20:37.881Z,101793.19
2017-12-05T00:21:43.970Z,101793.61
2017-12-05T00:22:50.126Z,101790.14
2017-12-05T00:23:55.955Z,101795.78
2017-12-05T00:25:01.799Z,101794.48
2017-12-05T00:26:07.967Z,101791.47
2017-12-05T00:27:13.728Z,101794.48
2017-12-05T00:28:19.606Z,101793.17
2017-12-05T00:29:25.378Z,101798.39
2017-12-05T00:30:31.698Z,101796.20
2017-12-05T00:31:37.483Z,101793.63
2017-12-05T00:32:43.215Z,101800.55
2017-12-05T00:33:49.408Z,101793.59
2017-12-05T00:34:55.182Z,101797.97
2017-12-05T00:36:06.049Z,101796.64
2017-12-05T00:37:15.638Z,101799.69
2017-12-05T00:38:21.427Z,101800.14
2017-12-05T00:39:27.534Z,101799.73
2017-12-05T00:40:33.663Z,101797.12
2017-12-05T00:41:45.479Z,101798.81
2017-12-05T00:42:50.906Z,101797.09
2017-12-05T00:43:56.752Z,101789.73
2017-12-05T00:45:04.263Z,101794.91
2017-12-05T00:46:10.089Z,101795.80
2017-12-05T00:47:15.557Z,101798.39
2017-12-05T00:48:20.979Z,101795.78
2017-12-05T00:49:27.096Z,101793.63
2017-12-05T00:50:33.291Z,101794.06
2017-12-05T00:51:39.462Z,101796.67
2017-12-05T00:52:45.620Z,101799.29
2017-12-05T00:53:51.775Z,101792.32
2017-12-05T00:54:57.702Z,101798.38
2017-12-05T00:56:04.035Z,101798.38
2017-12-05T00:57:10.157Z,101800.56
2017-12-05T00:58:16.322Z,101797.09
2017-12-05T00:59:22.455Z,101796.66
2017-12-05T01:00:28.555Z,101801.86
2017-12-05T01:01:34.524Z,101797.10
2017-12-05T01:02:40.744Z,101804.45
2017-12-05T01:03:46.907Z,101798.39
2017-12-05T01:04:53.061Z,101803.17
2017-12-05T01:05:59.343Z,101799.28
2017-12-05T01:07:05.438Z,101797.97
2017-12-05T01:08:11.543Z,101802.72
2017-12-05T01:09:17.541Z,101796.69
2017-12-05T01:10:29.566Z,101789.75
2017-12-05T01:11:35.689Z,101796.27
2017-12-05T01:12:41.845Z,101799.74
2017-12-05T01:13:48.024Z,101798.85
2017-12-05T01:14:54.147Z,101797.98
2017-12-05T01:16:00.252Z,101796.69
2017-12-05T01:17:06.456Z,101791.08
2017-12-05T01:18:12.619Z,101790.20
2017-12-05T01:19:18.731Z,101789.77
2017-12-05T01:20:25.142Z,101791.08
2017-12-05T01:21:31.250Z,101790.63
2017-12-05T01:22:37.382Z,101788.48
2017-12-05T01:23:43.542Z,101788.92
2017-12-05T01:24:49.672Z,101786.34
2017-12-05T01:25:55.871Z,101778.55
2017-12-05T01:27:02.046Z,101784.17
2017-12-05T01:28:13.096Z,101784.16
2017-12-05T01:29:19.233Z,101782.42
2017-12-05T01:30:25.352Z,101775.93
2017-12-05T01:31:31.535Z,101781.98
2017-12-05T01:32:37.654Z,101782.42
2017-12-05T01:33:43.834Z,101778.95
2017-12-05T01:34:50.020Z,101779.37
2017-12-05T01:35:56.166Z,101782.84
2017-12-05T01:37:02.100Z,101782.44
2017-12-05T01:38:08.195Z,101781.56
2017-12-05T01:39:14.287Z,101778.52
2017-12-05T01:40:20.491Z,101782.87
2017-12-05T01:41:25.945Z,101777.22
2017-12-05T01:42:31.880Z,101779.40
2017-12-05T01:43:37.452Z,101780.27
2017-12-05T01:44:43.582Z,101780.27
2017-12-05T01:45:49.740Z,101779.84
2017-12-05T01:46:55.861Z,101773.34
2017-12-05T01:48:05.985Z,101783.73
2017-12-05T01:49:12.090Z,101779.41
2017-12-05T01:50:17.896Z,101784.19
2017-12-05T01:51:24.082Z,101777.66
2017-12-05T01:52:30.288Z,101782.00
2017-12-05T01:53:35.928Z,101780.71
2017-12-05T01:54:42.075Z,101788.06
2017-12-05T01:55:48.079Z,101781.99
2017-12-05T01:56:54.214Z,101790.22
2017-12-05T01:58:00.037Z,101783.71
2017-12-05T01:59:05.327Z,101784.17
2017-12-05T02:00:10.962Z,101797.17
2017-12-05T02:01:16.159Z,101786.34
2017-12-05T02:02:21.955Z,101782.87
2017-12-05T02:03:27.795Z,101783.75
2017-12-05T02:04:33.456Z,101781.55
2017-12-05T02:05:39.451Z,101782.00
2017-12-05T02:06:44.832Z,101780.27
2017-12-05T02:07:50.293Z,101775.48
2017-12-05T02:08:55.804Z,101777.67
2017-12-05T02:10:01.684Z,101783.31
2017-12-05T02:11:07.365Z,101778.09
2017-12-05T02:12:13.202Z,101778.09
2017-12-05T02:13:18.978Z,101779.42
2017-12-05T02:14:24.481Z,101777.25
2017-12-05T02:15:30.632Z,101771.17
2017-12-05T02:16:39.697Z,101772.03
2017-12-05T02:17:45.640Z,101778.97
2017-12-05T02:18:51.773Z,101774.22
2017-12-05T02:19:57.952Z,101772.91
2017-12-05T02:21:03.047Z,101769.88
2017-12-05T02:22:08.089Z,101770.73
2017-12-05T02:23:14.112Z,101770.30
2017-12-05T02:24:20.268Z,101775.52
2017-12-05T02:25:26.412Z,101771.59
2017-12-05T02:26:32.639Z,101772.91
2017-12-05T02:27:38.762Z,101775.08
2017-12-05T02:28:44.916Z,101774.19
2017-12-05T02:29:51.115Z,101765.53
2017-12-05T02:30:57.234Z,101767.27
2017-12-05T02:32:03.423Z,101762.94
2017-12-05T02:33:10.454Z,101764.67
2017-12-05T02:34:16.585Z,101768.13
2017-12-05T02:35:22.842Z,101769.00
2017-12-05T02:36:29.205Z,101762.92
2017-12-05T02:37:35.339Z,101758.59
2017-12-05T02:38:41.447Z,101762.93
2017-12-05T02:39:47.807Z,101754.27
2017-12-05T02:41:16.094Z,101763.38
2017-12-05T02:42:23.151Z,101766.84
2017-12-05T02:43:28.608Z,101760.75
2017-12-05T02:44:34.707Z,101764.22
2017-12-05T02:45:40.271Z,101761.19
2017-12-05T02:46:45.698Z,101764.23
2017-12-05T02:47:51.563Z,101759.90
2017-12-05T02:48:56.961Z,101763.36
2017-12-05T02:50:02.379Z,101753.84
2017-12-05T02:51:08.299Z,101763.80
2017-12-05T02:52:13.719Z,101754.70
2017-12-05T02:53:19.011Z,101754.68
2017-12-05T02:54:27.469Z,101751.66
2017-12-05T02:55:32.916Z,101758.17
2017-12-05T02:56:38.727Z,101756.87
2017-12-05T02:57:44.222Z,101758.60
2017-12-05T02:58:49.690Z,101752.97
2017-12-05T02:59:55.111Z,101753.84
2017-12-05T03:01:00.403Z,101752.54
2017-12-05T03:02:06.021Z,101748.64
2017-12-05T03:03:11.663Z,101749.05
2017-12-05T03:04:16.906Z,101746.47
2017-12-05T03:05:22.162Z,101749.08
2017-12-05T03:06:27.757Z,101747.77
2017-12-05T03:07:33.520Z,101741.26
2017-12-05T03:08:39.292Z,101746.89
2017-12-05T03:09:44.494Z,101735.62
2017-12-05T03:10:50.326Z,101728.25
2017-12-05T03:11:55.826Z,101733.89
2017-12-05T03:13:01.310Z,101742.55
2017-12-05T03:14:07.104Z,101739.95
2017-12-05T03:15:12.845Z,101740.39
2017-12-05T03:16:18.105Z,101738.65
2017-12-05T03:17:24.343Z,101739.95
2017-12-05T03:18:29.797Z,101743.86
2017-12-05T03:19:35.570Z,101748.18
2017-12-05T03:20:41.335Z,101745.59
2017-12-05T03:21:47.262Z,101738.20
2017-12-05T03:22:53.024Z,101741.69
2017-12-05T03:23:59.181Z,101739.09
2017-12-05T03:25:10.143Z,101746.88
2017-12-05T03:26:16.313Z,101737.78
2017-12-05T03:27:22.442Z,101739.96
2017-12-05T03:28:28.541Z,101742.55
2017-12-05T03:29:34.665Z,101746.45
2017-12-05T03:30:40.808Z,101744.29
2017-12-05T03:31:46.920Z,101738.20
2017-12-05T03:32:57.757Z,101741.26
2017-12-05T03:34:03.766Z,101739.53
2017-12-05T03:35:19.766Z,101741.67
2017-12-05T03:36:25.900Z,101742.98
2017-12-05T03:37:32.061Z,101745.59
2017-12-05T03:38:38.554Z,101745.16
2017-12-05T03:39:45.442Z,101746.88
2017-12-05T03:40:51.595Z,101734.30
2017-12-05T03:41:57.686Z,101744.27
2017-12-05T03:43:03.872Z,101743.42
2017-12-05T03:44:09.987Z,101745.15
2017-12-05T03:45:16.110Z,101741.66
2017-12-05T03:46:24.050Z,101752.94
2017-12-05T03:47:31.096Z,101746.86
2017-12-05T03:48:37.219Z,101742.97
2017-12-05T03:49:43.333Z,101750.75
2017-12-05T03:50:49.286Z,101755.53
2017-12-05T03:51:55.378Z,101757.27
2017-12-05T03:53:02.088Z,101744.69
2017-12-05T03:54:11.138Z,101744.70
2017-12-05T03:55:17.226Z,101755.11
2017-12-05T03:56:23.351Z,101749.46
2017-12-05T03:57:29.520Z,101755.14
2017-12-05T03:58:35.422Z,101749.91
2017-12-05T03:59:41.563Z,101761.20
2017-12-05T04:00:47.690Z,101749.05
2017-12-05T04:01:53.611Z,101749.03
2017-12-05T04:02:59.720Z,101753.80
2017-12-05T04:04:05.852Z,101750.77
2017-12-05T04:05:11.775Z,101755.11
2017-12-05T04:06:17.889Z,101753.36
2017-12-05T04:07:24.002Z,101751.63
2017-12-05T04:08:30.102Z,101756.84
2017-12-05T04:09:36.216Z,101761.61
2017-12-05T04:10:42.316Z,101757.27
2017-12-05T04:11:48.464Z,101759.86
2017-12-05T04:12:54.577Z,101757.27
2017-12-05T04:14:00.683Z,101766.38
2017-12-05T04:15:06.791Z,101755.95
2017-12-05T04:16:19.043Z,101759.84
2017-12-05T04:17:25.155Z,101759.43
2017-12-05T04:18:31.268Z,101761.14
2017-12-05T04:19:37.352Z,101759.84
2017-12-05T04:20:43.490Z,101765.06
2017-12-05T04:21:49.658Z,101766.36
2017-12-05T04:22:55.792Z,101764.20
2017-12-05T04:24:02.051Z,101763.79
2017-12-05T04:25:08.255Z,101765.48
2017-12-05T04:26:14.383Z,101765.52
2017-12-05T04:27:20.514Z,101768.13
2017-12-05T04:28:26.649Z,101766.81
2017-12-05T04:29:32.785Z,101768.98
2017-12-05T04:30:38.938Z,101767.69
2017-12-05T04:31:45.036Z,101769.83
2017-12-05T04:32:51.121Z,101766.36
2017-12-05T04:33:56.570Z,101766.36
2017-12-05T04:35:02.699Z,101763.33
2017-12-05T04:36:08.548Z,101768.97
2017-12-05T04:37:14.586Z,101769.84
2017-12-05T04:38:21.089Z,101768.11
2017-12-05T04:39:27.170Z,101773.33
2017-12-05T04:40:33.435Z,101766.36
2017-12-05T04:41:39.236Z,101767.66
2017-12-05T04:42:45.331Z,101771.59
2017-12-05T04:43:51.455Z,101775.08
2017-12-05T04:44:57.278Z,101772.00
2017-12-05T04:46:03.379Z,101768.13
2017-12-05T04:47:09.511Z,101772.89
2017-12-05T04:48:16.231Z,101769.41
2017-12-05T04:49:21.987Z,101770.28
2017-12-05T04:50:28.144Z,101767.66
2017-12-05T04:51:33.965Z,101767.68
2017-12-05T04:52:39.701Z,101771.13
2017-12-05T04:53:45.857Z,101774.62
2017-12-05T04:54:51.820Z,101779.39
2017-12-05T04:55:57.606Z,101780.28
2017-12-05T04:57:02.878Z,101775.93
2017-12-05T04:58:09.030Z,101781.55
2017-12-05T04:59:15.255Z,101782.87
2017-12-05T05:00:20.659Z,101782.84
2017-12-05T05:01:26.253Z,101780.67
2017-12-05T05:02:31.688Z,101782.44
2017-12-05T05:03:37.468Z,101778.09
2017-12-05T05:04:43.444Z,101785.47
2017-12-05T05:05:49.543Z,101783.75
2017-12-05T05:06:55.633Z,101782.44
2017-12-05T05:08:01.768Z,101785.05
2017-12-05T05:09:12.072Z,101785.47
2017-12-05T05:10:18.206Z,101779.39
2017-12-05T05:11:24.119Z,101783.30
2017-12-05T05:12:30.010Z,101781.15
2017-12-05T05:13:37.505Z,101784.14
2017-12-05T05:14:44.225Z,101781.10
2017-12-05T05:15:50.402Z,101785.89
2017-12-05T05:16:56.388Z,101787.65
2017-12-05T05:18:02.511Z,101793.30
2017-12-05T05:19:08.469Z,101789.37
2017-12-05T05:20:14.661Z,101788.50
2017-12-05T05:21:20.276Z,101793.28
2017-12-05T05:22:26.203Z,101794.17
2017-12-05T05:23:32.113Z,101795.87
2017-12-05T05:24:38.258Z,101799.36
2017-12-05T05:25:44.349Z,101795.47
2017-12-05T05:26:50.555Z,101798.47
2017-12-05T05:27:56.306Z,101796.36
2017-12-05T05:29:02.204Z,101794.61
2017-12-05T05:30:07.903Z,101791.56
2017-12-05T05:31:14.028Z,101800.67
2017-12-05T05:32:20.113Z,101792.87
2017-12-05T05:33:26.047Z,101796.31
2017-12-05T05:34:32.542Z,101798.51
2017-12-05T05:35:38.642Z,101795.87
2017-12-05T05:36:44.706Z,101787.63
2017-12-05T05:37:50.641Z,101790.23
2017-12-05T05:38:56.738Z,101791.56
2017-12-05T05:40:06.266Z,101790.24
2017-12-05T05:41:12.499Z,101796.75
2017-12-05T05:42:18.606Z,101801.53
2017-12-05T05:43:24.556Z,101788.92
2017-12-05T05:44:30.717Z,101792.42
2017-12-05T05:45:36.691Z,101794.17
2017-12-05T05:46:42.823Z,101791.98
2017-12-05T05:47:48.934Z,101794.58
2017-12-05T05:48:54.926Z,101798.52
2017-12-05T05:50:01.081Z,101799.37
2017-12-05T05:51:07.242Z,101802.41
2017-12-05T05:52:13.344Z,101792.00
2017-12-05T05:53:19.553Z,101798.51
2017-12-05T05:54:25.637Z,101798.91
2017-12-05T05:55:31.757Z,101793.27
2017-12-05T05:56:37.948Z,101797.19
2017-12-05T05:57:44.103Z,101796.73
2017-12-05T05:58:50.275Z,101798.47
2017-12-05T05:59:56.394Z,101795.44
2017-12-05T06:01:02.505Z,101792.84
2017-12-05T06:02:10.460Z,101801.51
2017-12-05T06:03:16.384Z,101802.84
2017-12-05T06:04:22.522Z,101800.66
2017-12-05T06:05:28.512Z,101797.62
2017-12-05T06:06:34.647Z,101800.23
2017-12-05T06:07:40.922Z,101798.91
2017-12-05T06:08:47.039Z,101803.72
2017-12-05T06:09:53.138Z,101801.53
2017-12-05T06:10:59.322Z,101807.60
2017-12-05T06:12:05.475Z,101803.71
2017-12-05T06:13:11.582Z,101811.52
2017-12-05T06:14:17.678Z,101808.03
2017-12-05T06:15:23.852Z,101808.48
2017-12-05T06:16:29.952Z,101813.27
2017-12-05T06:17:36.041Z,101807.59
2017-12-05T06:18:42.191Z,101819.33
2017-12-05T06:19:52.194Z,101815.41
2017-12-05T06:21:01.232Z,101809.80
2017-12-05T06:22:07.350Z,101815.85
2017-12-05T06:23:13.446Z,101815.42
2017-12-05T06:24:19.631Z,101815.83
2017-12-05T06:25:25.781Z,101808.88
2017-12-05T06:26:31.912Z,101820.59
2017-12-05T06:27:38.054Z,101823.64
2017-12-05T06:28:44.216Z,101815.83
2017-12-05T06:29:50.313Z,101817.59
2017-12-05T06:30:56.410Z,101823.66
2017-12-05T06:32:02.571Z,101815.84
2017-12-05T06:33:08.724Z,101815.43
2017-12-05T06:34:14.882Z,101818.89
2017-12-05T06:35:21.069Z,101818.45
2017-12-05T06:36:27.174Z,101815.86
2017-12-05T06:37:33.111Z,101816.27
2017-12-05T06:38:39.843Z,101817.12
2017-12-05T06:39:45.984Z,101813.66
2017-12-05T06:40:52.083Z,101815.41
2017-12-05T06:41:58.034Z,101811.93
2017-12-05T06:43:04.223Z,101820.60
2017-12-05T06:44:10.417Z,101821.03
2017-12-05T06:45:16.327Z,101826.25
2017-12-05T06:46:22.338Z,101831.91
2017-12-05T06:47:28.240Z,101823.67
2017-12-05T06:48:34.359Z,101829.30
2017-12-05T06:49:40.173Z,101834.08
2017-12-05T06:50:45.613Z,101843.64
2017-12-05T06:51:51.068Z,101843.20
2017-12-05T06:52:56.343Z,101843.22
2017-12-05T06:54:01.765Z,101847.52
2017-12-05T06:55:07.013Z,101847.09
2017-12-05T06:56:13.486Z,101846.23
2017-12-05T06:57:18.768Z,101850.12
2017-12-05T06:58:24.058Z,101847.52
2017-12-05T06:59:29.290Z,101854.91
2017-12-05T07:00:34.712Z,101849.69
2017-12-05T07:01:39.917Z,101848.82
2017-12-05T07:02:45.721Z,101860.58
2017-12-05T07:03:51.206Z,101863.17
2017-12-05T07:04:56.664Z,101853.62
2017-12-05T07:06:02.076Z,101860.97
2017-12-05T07:07:07.587Z,101854.91
2017-12-05T07:08:13.481Z,101861.84
2017-12-05T07:09:19.281Z,101864.89
2017-12-05T07:10:24.694Z,101871.86
2017-12-05T07:11:35.032Z,101861.44
2017-12-05T07:12:40.660Z,101857.97
2017-12-05T07:13:49.169Z,101866.64
2017-12-05T07:14:54.599Z,101867.52
2017-12-05T07:16:00.046Z,101877.06
2017-12-05T07:17:05.581Z,101872.71
2017-12-05T07:18:11.364Z,101866.63
2017-12-05T07:19:16.813Z,101869.22
2017-12-05T07:20:22.291Z,101874.46
2017-12-05T07:21:35.968Z,101874.00
2017-12-05T07:22:42.050Z,101875.30
2017-12-05T07:23:47.544Z,101877.89
2017-12-05T07:24:53.123Z,101880.95
2017-12-05T07:25:58.422Z,101884.41
2017-12-05T07:27:04.008Z,101872.69
2017-12-05T07:28:09.535Z,101887.05
2017-12-05T07:29:15.009Z,101880.53
2017-12-05T07:30:20.446Z,101887.50
2017-12-05T07:31:26.195Z,101897.91
2017-12-05T07:32:31.636Z,101890.50
2017-12-05T07:33:37.069Z,101888.34
2017-12-05T07:34:42.548Z,101892.69
2017-12-05T07:35:48.067Z,101899.20
2017-12-05T07:36:53.630Z,101888.36
2017-12-05T07:37:59.072Z,101893.98
2017-12-05T07:39:04.544Z,101899.22
2017-12-05T07:40:10.522Z,101899.21
2017-12-05T07:41:15.938Z,101892.27
2017-12-05T07:42:21.389Z,101903.09
2017-12-05T07:43:26.847Z,101904.87
2017-12-05T07:44:32.660Z,101899.19
2017-12-05T07:45:38.162Z,101895.73
2017-12-05T07:46:43.809Z,101902.25
2017-12-05T07:47:49.543Z,101905.29
2017-12-05T07:48:55.040Z,101907.03
2017-12-05T07:50:00.832Z,101908.33
2017-12-05T07:51:06.273Z,101906.14
2017-12-05T07:52:11.540Z,101910.06
2017-12-05T07:53:16.779Z,101913.95
2017-12-05T07:54:22.699Z,101916.14
2017-12-05T07:55:27.916Z,101917.45
2017-12-05T07:56:33.438Z,101918.28
2017-12-05T07:57:39.669Z,101919.59
2017-12-05T07:58:45.755Z,101918.31
2017-12-05T07:59:51.677Z,101915.23
2017-12-05T08:00:57.189Z,101915.25
2017-12-05T08:02:02.963Z,101916.56
2017-12-05T08:03:09.171Z,101913.09
2017-12-05T08:04:14.656Z,101913.95
2017-12-05T08:05:20.120Z,101926.12
2017-12-05T08:06:25.397Z,101918.30
2017-12-05T08:07:30.462Z,101916.12
2017-12-05T08:08:35.980Z,101921.77
2017-12-05T08:09:41.274Z,101919.58
2017-12-05T08:10:46.714Z,101915.66
2017-12-05T08:11:52.316Z,101915.69
2017-12-05T08:12:57.778Z,101918.28
2017-12-05T08:14:03.223Z,101925.23
2017-12-05T08:15:08.667Z,101926.97
2017-12-05T08:16:13.945Z,101920.45
2017-12-05T08:17:19.494Z,101924.34
2017-12-05T08:18:24.706Z,101923.92
2017-12-05T08:19:30.122Z,101926.53
2017-12-05T08:20:35.568Z,101921.30
2017-12-05T08:21:41.131Z,101925.22
2017-12-05T08:22:46.675Z,101932.61
2017-12-05T08:23:52.090Z,101932.61
2017-12-05T08:24:57.338Z,101931.30
2017-12-05T08:26:02.632Z,101927.84
2017-12-05T08:27:08.106Z,101930.00
2017-12-05T08:28:13.439Z,101931.73
2017-12-05T08:29:19.022Z,101925.22
2017-12-05T08:30:24.437Z,101934.37
2017-12-05T08:31:29.669Z,101925.22
2017-12-05T08:32:35.094Z,101928.28
2017-12-05T08:33:40.580Z,101932.62
2017-12-05T08:34:46.030Z,101935.20
2017-12-05T08:35:51.473Z,101933.88
2017-12-05T08:36:56.829Z,101927.38
2017-12-05T08:38:02.374Z,101940.41
2017-12-05T08:39:07.870Z,101933.91
2017-12-05T08:40:13.341Z,101944.75
2017-12-05T08:41:18.775Z,101939.52
2017-12-05T08:42:24.268Z,101948.66
2017-12-05T08:43:30.066Z,101953.02
2017-12-05T08:44:35.824Z,101951.70
2017-12-05T08:45:41.461Z,101953.41
2017-12-05T08:46:46.955Z,101948.20
2017-12-05T08:47:52.759Z,101951.25
2017-12-05T08:48:58.002Z,101956.02
2017-12-05T08:50:03.762Z,101960.80
2017-12-05T08:51:09.222Z,101954.71
2017-12-05T08:52:14.654Z,101964.30
2017-12-05T08:53:20.103Z,101962.55
2017-12-05T08:54:25.526Z,101959.52
2017-12-05T08:55:30.766Z,101969.05
2017-12-05T08:56:39.375Z,101959.93
2017-12-05T08:57:45.171Z,101964.73
2017-12-05T08:58:50.612Z,101965.62
2017-12-05T08:59:56.050Z,101960.38
2017-12-05T09:01:01.544Z,101960.37
2017-12-05T09:02:06.998Z,101964.70
2017-12-05T09:03:13.126Z,101955.10
2017-12-05T09:04:19.398Z,101962.07
2017-12-05T09:05:24.894Z,101958.59
2017-12-05T09:06:30.455Z,101962.06
2017-12-05T09:07:35.672Z,101957.25
2017-12-05T09:08:41.136Z,101966.39
2017-12-05T09:09:46.623Z,101962.50
2017-12-05T09:10:52.859Z,101955.98
2017-12-05T09:11:58.677Z,101961.22
2017-12-05T09:13:04.168Z,101958.59
2017-12-05T09:14:09.955Z,101958.16
2017-12-05T09:15:15.416Z,101951.20
2017-12-05T09:16:21.799Z,101960.77
2017-12-05T09:17:29.006Z,101962.52
2017-12-05T09:18:35.227Z,101961.64
2017-12-05T09:19:42.474Z,101953.80
2017-12-05T09:20:49.013Z,101958.59
2017-12-05T09:22:02.333Z,101961.63
2017-12-05T09:23:08.953Z,101960.32
2017-12-05T09:24:15.417Z,101956.83
2017-12-05T09:25:22.008Z,101962.45
2017-12-05T09:26:28.734Z,101958.98
2017-12-05T09:27:34.891Z,101970.25
2017-12-05T09:28:40.569Z,101964.58
2017-12-05T09:29:45.796Z,101957.19
2017-12-05T09:30:51.222Z,101963.70
2017-12-05T09:32:03.050Z,101964.58
2017-12-05T09:33:08.553Z,101971.97
2017-12-05T09:34:14.042Z,101965.44
2017-12-05T09:35:20.424Z,101967.19
2017-12-05T09:36:30.098Z,101975.90
2017-12-05T09:37:35.633Z,101966.29
2017-12-05T09:38:40.864Z,101960.22
2017-12-05T09:39:46.390Z,101965.00
2017-12-05T09:40:51.856Z,101966.75
2017-12-05T09:41:57.323Z,101960.22
2017-12-05T09:43:02.766Z,101963.70
2017-12-05T09:44:08.245Z,101970.25
2017-12-05T09:45:13.547Z,101974.16
2017-12-05T09:46:18.987Z,101971.08
2017-12-05T09:47:24.410Z,101962.34
2017-12-05T09:48:35.960Z,101961.95
2017-12-05T09:49:41.484Z,101966.71
2017-12-05T09:50:46.901Z,101968.89
2017-12-05T09:51:52.194Z,101967.56
2017-12-05T09:52:57.997Z,101961.91
2017-12-05T09:54:03.402Z,101963.65
2017-12-05T09:55:09.177Z,101962.81
2017-12-05T09:56:14.584Z,101962.80
2017-12-05T09:57:20.086Z,101956.69
2017-12-05T09:58:25.546Z,101960.62
2017-12-05T09:59:30.791Z,101955.86
2017-12-05T10:00:37.204Z,101953.64
2017-12-05T10:01:42.497Z,101956.67
2017-12-05T10:02:47.919Z,101951.92
2017-12-05T10:03:53.361Z,101945.86
2017-12-05T10:04:58.703Z,101938.46
2017-12-05T10:06:04.134Z,101946.69
2017-12-05T10:07:09.607Z,101942.77
2017-12-05T10:08:15.024Z,101946.22
2017-12-05T10:09:20.511Z,101944.47
2017-12-05T10:10:25.940Z,101947.11
2017-12-05T10:11:31.377Z,101940.58
2017-12-05T10:12:37.191Z,101943.20
2017-12-05T10:13:42.456Z,101941.84
2017-12-05T10:14:48.868Z,101946.16
2017-12-05T10:15:54.371Z,101942.69
2017-12-05T10:16:59.861Z,101937.05
2017-12-05T10:18:05.330Z,101938.34
2017-12-05T10:19:10.571Z,101935.73
2017-12-05T10:20:16.098Z,101931.84
2017-12-05T10:21:21.374Z,101936.14
2017-12-05T10:22:26.871Z,101928.27
2017-12-05T10:23:32.099Z,101933.12
2017-12-05T10:24:37.543Z,101931.38
2017-12-05T10:25:42.832Z,101935.75
2017-12-05T10:26:48.066Z,101930.07
2017-12-05T10:27:53.520Z,101934.87
2017-12-05T10:28:58.999Z,101935.73
2017-12-05T10:30:04.415Z,101931.41
2017-12-05T10:31:09.940Z,101927.52
2017-12-05T10:32:15.773Z,101928.77
2017-12-05T10:33:21.196Z,101940.52
2017-12-05T10:34:26.645Z,101934.89
2017-12-05T10:35:32.038Z,101930.95
2017-12-05T10:36:37.453Z,101933.12
2017-12-05T10:37:42.887Z,101937.52
2017-12-05T10:38:53.658Z,101935.83
2017-12-05T10:39:59.169Z,101940.17
2017-12-05T10:41:04.641Z,101938.88
2017-12-05T10:42:09.924Z,101938.02
2017-12-05T10:43:15.439Z,101940.27
2017-12-05T10:44:20.732Z,101936.34
2017-12-05T10:45:25.977Z,101940.68
2017-12-05T10:46:31.497Z,101945.45
2017-12-05T10:47:36.926Z,101953.27
2017-12-05T10:48:42.227Z,101947.23
2017-12-05T10:49:47.438Z,101948.53
2017-12-05T10:50:52.649Z,101949.40
2017-12-05T10:51:58.124Z,101945.91
2017-12-05T10:53:03.543Z,101940.70
2017-12-05T10:54:08.975Z,101939.86
2017-12-05T10:55:14.234Z,101939.84
2017-12-05T10:56:19.500Z,101942.88
2017-12-05T10:57:25.130Z,101945.11
2017-12-05T10:58:31.101Z,101942.48
2017-12-05T10:59:36.569Z,101948.63
2017-12-05T11:00:42.433Z,101952.95
2017-12-05T11:01:48.023Z,101945.98
2017-12-05T11:02:54.148Z,101955.11
2017-12-05T11:04:00.010Z,101949.91
2017-12-05T11:05:05.816Z,101949.45
2017-12-05T11:06:12.534Z,101948.59
2017-12-05T11:07:18.660Z,101944.69
2017-12-05T11:08:24.441Z,101948.16
2017-12-05T11:09:30.259Z,101946.41
2017-12-05T11:10:36.384Z,101933.78
2017-12-05T11:11:41.631Z,101940.28
2017-12-05T11:12:47.389Z,101934.61
2017-12-05T11:13:53.382Z,101934.20
2017-12-05T11:14:58.871Z,101932.06
2017-12-05T11:16:04.321Z,101929.45
2017-12-05T11:17:10.089Z,101925.53
2017-12-05T11:18:16.242Z,101926.80
2017-12-05T11:19:22.414Z,101924.19
2017-12-05T11:20:27.989Z,101920.73
2017-12-05T11:21:33.285Z,101926.38
2017-12-05T11:22:39.109Z,101925.03
2017-12-05T11:23:45.938Z,101922.89
2017-12-05T11:24:51.901Z,101918.53
2017-12-05T11:25:57.816Z,101919.38
2017-12-05T11:27:03.393Z,101930.65
2017-12-05T11:28:12.031Z,101924.16
2017-12-05T11:29:17.708Z,101924.16
2017-12-05T11:30:27.801Z,101931.13
2017-12-05T11:31:33.910Z,101925.45
2017-12-05T11:32:40.019Z,101930.23
2017-12-05T11:33:45.602Z,101926.73
2017-12-05T11:34:51.778Z,101927.24
2017-12-05T11:35:57.510Z,101924.19
2017-12-05T11:37:03.320Z,101921.99
2017-12-05T11:38:09.165Z,101923.24
2017-12-05T11:39:15.349Z,101924.58
2017-12-05T11:40:21.504Z,101927.19
2017-12-05T11:41:27.615Z,101925.87
2017-12-05T11:42:33.540Z,101927.63
2017-12-05T11:43:39.686Z,101933.75
2017-12-05T11:44:45.876Z,101925.94
2017-12-05T11:45:51.620Z,101925.04
2017-12-05T11:46:57.635Z,101924.19
2017-12-05T11:48:03.153Z,101933.75
2017-12-05T11:49:09.098Z,101921.55
2017-12-05T11:50:14.896Z,101928.96
2017-12-05T11:51:28.896Z,101931.58
2017-12-05T11:52:35.033Z,101925.48
2017-12-05T11:53:41.119Z,101932.00
2017-12-05T11:54:46.155Z,101928.99
2017-12-05T11:55:52.326Z,101934.61
2017-12-05T11:56:58.265Z,101929.84
2017-12-05T11:58:04.059Z,101920.66
2017-12-05T11:59:09.547Z,101925.91
2017-12-05T12:00:14.791Z,101932.88
2017-12-05T12:01:20.738Z,101937.63
2017-12-05T12:02:26.917Z,101924.65
2017-12-05T12:03:33.068Z,101929.86
2017-12-05T12:04:38.815Z,101932.02
2017-12-05T12:05:44.307Z,101924.23
2017-12-05T12:06:53.421Z,101926.80
2017-12-05T12:07:59.434Z,101921.53
2017-12-05T12:09:06.856Z,101921.15
2017-12-05T12:10:13.507Z,101922.88
2017-12-05T12:11:19.663Z,101925.94
2017-12-05T12:12:26.171Z,101921.63
2017-12-05T12:13:32.272Z,101917.69
2017-12-05T12:14:38.454Z,101923.77
2017-12-05T12:15:44.587Z,101918.55
2017-12-05T12:16:50.706Z,101921.59
2017-12-05T12:17:56.722Z,101915.06
2017-12-05T12:19:02.885Z,101915.94
2017-12-05T12:20:09.053Z,101917.27
2017-12-05T12:21:15.193Z,101913.80
2017-12-05T12:22:21.347Z,101912.45
2017-12-05T12:23:27.494Z,101912.47
2017-12-05T12:24:33.324Z,101916.39
2017-12-05T12:25:39.095Z,101920.74
2017-12-05T12:26:45.202Z,101916.83
2017-12-05T12:27:51.453Z,101913.38
2017-12-05T12:28:58.345Z,101915.55
2017-12-05T12:30:04.462Z,101916.87
2017-12-05T12:31:10.610Z,101921.66
2017-12-05T12:32:16.774Z,101919.51
2017-12-05T12:33:22.926Z,101922.10
2017-12-05T12:34:29.084Z,101915.62